Time;durP1;ratioP1;P1;durP2;ratioP2;P2;SDS_P1;SDS_P2;PMS_P1;PMS_P2;Temp;Humidity;BMP_temperature;BMP_pressure;BME280_temperature;BME280_humidity;BME280_pressure;Samples;Min_cycle;Max_cycle;Signal;HPM_P1;HPM_P2
2023/08/17 00:00:13;;;;;;;10.43;9.43;;;19.30;99.90;;;;;;5034396;28;20174;-72
2023/08/17 00:02:40;;;;;;;10.33;9.20;;;19.30;99.90;;;;;;5033662;28;20215;-72
2023/08/17 00:05:08;;;;;;;11.23;9.33;;;19.30;99.90;;;;;;5034045;28;20179;-72
2023/08/17 00:07:35;;;;;;;10.67;9.57;;;19.20;99.90;;;;;;5034252;28;20259;-72
2023/08/17 00:10:00;;;;;;;9.70;8.57;;;19.20;99.90;;;;;;5033825;28;20241;-72
2023/08/17 00:12:26;;;;;;;13.77;9.83;;;19.20;99.90;;;;;;5033044;28;20171;-72
2023/08/17 00:14:53;;;;;;;9.17;8.17;;;19.10;99.90;;;;;;5034148;28;20669;-72
2023/08/17 00:17:19;;;;;;;11.20;9.30;;;19.20;99.90;;;;;;5033971;28;20184;-73
2023/08/17 00:19:45;;;;;;;9.53;8.30;;;19.20;99.90;;;;;;5034154;28;20176;-72
2023/08/17 00:22:10;;;;;;;10.90;9.47;;;19.20;99.90;;;;;;5033794;28;20540;-72
2023/08/17 00:24:36;;;;;;;10.97;8.77;;;19.10;99.90;;;;;;5033725;28;20207;-72
2023/08/17 00:27:03;;;;;;;9.83;8.83;;;19.20;99.90;;;;;;5033629;28;20202;-73
2023/08/17 00:29:29;;;;;;;10.63;9.10;;;19.10;99.90;;;;;;5033634;28;20187;-72
2023/08/17 00:31:54;;;;;;;13.63;8.87;;;19.10;99.90;;;;;;5032317;28;20225;-72
2023/08/17 00:34:20;;;;;;;13.07;9.53;;;19.10;99.90;;;;;;5031994;28;20199;-73
2023/08/17 00:36:46;;;;;;;11.70;9.23;;;19.00;99.90;;;;;;5033740;28;20629;-72
2023/08/17 00:39:11;;;;;;;10.97;8.63;;;19.00;99.90;;;;;;5033079;28;20261;-72
2023/08/17 00:41:37;;;;;;;10.00;9.00;;;19.00;99.90;;;;;;5033269;28;20213;-72
2023/08/17 00:44:03;;;;;;;12.80;9.03;;;19.10;99.90;;;;;;5033258;28;20195;-72
2023/08/17 00:46:30;;;;;;;10.53;8.67;;;19.10;99.90;;;;;;5033543;28;20174;-72
2023/08/17 00:48:56;;;;;;;10.50;9.40;;;19.00;99.90;;;;;;5033509;28;20203;-72
2023/08/17 00:51:24;;;;;;;12.47;8.37;;;19.00;99.90;;;;;;5032911;28;20277;-72
2023/08/17 00:53:58;;;;;;;12.27;8.60;;;18.90;99.90;;;;;;5032289;28;20420;-73
2023/08/17 00:56:25;;;;;;;9.93;8.13;;;18.90;99.90;;;;;;5033044;28;20189;-73
2023/08/17 00:58:51;;;;;;;10.30;8.87;;;19.00;99.90;;;;;;5033398;28;20172;-73
2023/08/17 01:01:17;;;;;;;11.50;8.50;;;18.90;99.90;;;;;;5032716;28;20195;-72
2023/08/17 01:03:42;;;;;;;12.80;9.63;;;18.90;99.90;;;;;;5031667;28;20207;-72
2023/08/17 01:06:09;;;;;;;10.90;9.27;;;18.90;99.90;;;;;;5033223;28;20202;-72
2023/08/17 01:08:37;;;;;;;10.50;9.30;;;18.90;99.90;;;;;;5032982;28;20202;-72
2023/08/17 01:11:02;;;;;;;9.73;8.77;;;19.00;99.90;;;;;;5033103;28;20718;-73
2023/08/17 01:14:01;;;;;;;11.23;9.03;;;19.00;99.90;;;;;;5030398;28;20195;-72
2023/08/17 01:16:34;;;;;;;11.00;9.93;;;18.90;99.90;;;;;;5008489;28;20404;-71
2023/08/17 01:19:04;;;;;;;12.73;10.00;;;18.80;99.90;;;;;;5031270;28;20183;-72
2023/08/17 01:21:39;;;;;;;13.47;9.67;;;18.80;99.90;;;;;;5032524;28;20221;-72
2023/08/17 01:24:05;;;;;;;14.47;10.77;;;18.80;99.90;;;;;;5032403;28;20520;-72
2023/08/17 01:26:31;;;;;;;15.03;10.73;;;18.80;99.90;;;;;;5032693;28;21015;-72
2023/08/17 01:28:56;;;;;;;10.60;9.60;;;18.90;99.90;;;;;;5032523;28;20179;-72
2023/08/17 01:31:35;;;;;;;11.17;10.17;;;18.80;99.90;;;;;;5031709;28;20229;-72
2023/08/17 01:34:08;;;;;;;11.03;10.13;;;18.90;99.90;;;;;;5032365;28;20197;-71
2023/08/17 01:36:42;;;;;;;11.67;10.47;;;18.90;99.90;;;;;;5032525;28;20176;-71
2023/08/17 01:39:08;;;;;;;11.13;10.00;;;18.90;99.90;;;;;;5032399;28;20174;-72
2023/08/17 01:41:34;;;;;;;11.00;10.00;;;18.90;99.90;;;;;;5031822;28;20187;-71
2023/08/17 01:44:00;;;;;;;11.70;9.93;;;19.00;99.90;;;;;;5031139;28;20207;-72
2023/08/17 01:46:34;;;;;;;10.73;9.70;;;19.00;99.90;;;;;;5031432;28;20309;-72
2023/08/17 01:48:59;;;;;;;15.77;10.37;;;19.00;99.90;;;;;;5031271;28;20548;-71
2023/08/17 01:51:25;;;;;;;11.17;10.17;;;19.00;99.90;;;;;;5031845;28;20247;-71
2023/08/17 01:53:51;;;;;;;10.67;9.77;;;18.90;99.90;;;;;;5031933;28;20210;-72
2023/08/17 01:56:17;;;;;;;10.27;9.30;;;19.00;99.90;;;;;;5031709;28;20700;-72
2023/08/17 01:58:43;;;;;;;10.23;9.23;;;18.90;99.90;;;;;;5032157;28;20176;-72
2023/08/17 02:01:08;;;;;;;10.40;9.40;;;18.90;99.90;;;;;;5031793;28;20270;-72
2023/08/17 02:03:34;;;;;;;14.70;10.40;;;18.90;99.90;;;;;;5031398;28;20707;-72
2023/08/17 02:06:00;;;;;;;10.63;9.63;;;18.90;99.90;;;;;;5031579;28;20180;-71
2023/08/17 02:08:25;;;;;;;13.50;10.77;;;18.90;99.90;;;;;;5031903;28;20666;-71
2023/08/17 02:10:51;;;;;;;12.23;10.93;;;18.90;99.90;;;;;;5030772;28;20190;-71
2023/08/17 02:13:17;;;;;;;11.80;10.70;;;18.90;99.90;;;;;;5031115;28;20207;-71
2023/08/17 02:15:43;;;;;;;13.97;10.97;;;18.90;99.90;;;;;;5031623;28;20237;-71
2023/08/17 02:18:09;;;;;;;12.10;10.63;;;18.90;99.90;;;;;;5031824;28;20175;-72
2023/08/17 02:20:34;;;;;;;11.63;10.47;;;18.80;99.90;;;;;;5031615;28;20175;-72
2023/08/17 02:23:01;;;;;;;13.37;10.60;;;18.80;99.90;;;;;;5030974;28;20746;-71
2023/08/17 02:25:33;;;;;;;10.53;9.53;;;18.90;99.90;;;;;;5031784;28;20213;-71
2023/08/17 02:27:59;;;;;;;10.23;9.33;;;18.90;99.90;;;;;;5031761;28;20183;-71
2023/08/17 02:30:25;;;;;;;11.50;10.27;;;18.90;99.90;;;;;;5031854;28;20166;-70
2023/08/17 02:32:51;;;;;;;11.87;10.80;;;18.90;99.90;;;;;;5030933;28;20657;-71
2023/08/17 02:35:16;;;;;;;11.33;10.23;;;19.00;99.90;;;;;;5030933;28;20175;-71
2023/08/17 02:37:42;;;;;;;11.13;10.03;;;19.00;99.90;;;;;;5031571;28;20167;-71
2023/08/17 02:40:20;;;;;;;11.03;9.93;;;19.00;99.90;;;;;;5031445;28;20172;-71
2023/08/17 02:42:46;;;;;;;11.57;10.47;;;19.10;99.90;;;;;;5031162;28;20506;-71
2023/08/17 02:45:11;;;;;;;12.43;10.50;;;19.20;99.90;;;;;;5029947;28;20175;-71
2023/08/17 02:47:37;;;;;;;11.07;10.07;;;19.30;99.90;;;;;;5030279;28;20253;-71
2023/08/17 02:50:03;;;;;;;10.80;9.70;;;19.30;99.90;;;;;;5031457;28;20195;-71
2023/08/17 02:52:28;;;;;;;10.50;9.60;;;19.20;99.90;;;;;;5030926;28;20171;-72
2023/08/17 02:54:54;;;;;;;13.63;9.50;;;19.30;99.90;;;;;;5031424;28;20549;-72
2023/08/17 02:57:20;;;;;;;9.80;8.80;;;19.30;99.90;;;;;;5031004;28;20194;-71
2023/08/17 02:59:46;;;;;;;12.03;9.40;;;19.30;99.90;;;;;;5030877;28;20248;-71
2023/08/17 03:02:11;;;;;;;10.10;9.10;;;19.30;99.90;;;;;;5031551;28;20175;-71
2023/08/17 03:04:37;;;;;;;10.03;9.10;;;19.30;99.90;;;;;;5031285;28;20250;-71
2023/08/17 03:07:03;;;;;;;9.33;8.30;;;19.30;99.90;;;;;;5031347;28;20237;-71
2023/08/17 03:09:28;;;;;;;8.80;8.00;;;19.40;99.90;;;;;;5031183;28;20179;-71
2023/08/17 03:11:54;;;;;;;9.30;8.40;;;19.40;99.90;;;;;;5029808;28;20172;-71
2023/08/17 03:14:19;;;;;;;8.23;7.63;;;19.40;99.90;;;;;;5031086;28;20582;-71
2023/08/17 03:16:45;;;;;;;9.40;8.50;;;19.40;99.90;;;;;;5031079;28;20183;-72
2023/08/17 03:19:11;;;;;;;9.20;8.23;;;19.40;99.90;;;;;;5031209;28;20259;-71
2023/08/17 03:21:37;;;;;;;9.23;8.40;;;19.40;99.90;;;;;;5031078;28;20198;-71
2023/08/17 03:24:03;;;;;;;8.97;8.17;;;19.30;99.90;;;;;;5031238;28;20219;-71
2023/08/17 03:26:29;;;;;;;11.33;8.17;;;19.30;99.90;;;;;;5030893;28;20175;-72
2023/08/17 03:28:54;;;;;;;8.40;7.60;;;19.30;99.90;;;;;;5031042;28;20556;-71
2023/08/17 03:31:23;;;;;;;9.17;8.23;;;19.30;99.90;;;;;;5030857;28;20187;-71
2023/08/17 03:33:49;;;;;;;8.23;7.00;;;19.20;99.90;;;;;;5030482;28;20204;-71
2023/08/17 03:36:15;;;;;;;8.70;7.80;;;19.20;99.90;;;;;;5029850;28;20197;-71
2023/08/17 03:38:40;;;;;;;9.57;8.67;;;19.10;99.90;;;;;;5031133;28;20194;-72
2023/08/17 03:41:07;;;;;;;8.83;7.63;;;19.10;99.90;;;;;;5030834;28;20544;-72
2023/08/17 03:43:32;;;;;;;10.03;7.70;;;19.00;99.90;;;;;;5029287;28;20572;-71
2023/08/17 03:45:58;;;;;;;8.70;7.80;;;19.00;99.90;;;;;;5032062;28;20180;-71
2023/08/17 03:48:24;;;;;;;9.03;7.73;;;18.90;99.90;;;;;;5034689;28;20178;-71
2023/08/17 03:50:54;;;;;;;9.23;8.33;;;18.90;99.90;;;;;;5034634;28;20234;-72
2023/08/17 03:53:19;;;;;;;10.60;8.43;;;18.90;99.90;;;;;;5033998;28;20203;-71
2023/08/17 03:55:49;;;;;;;8.57;7.77;;;18.90;99.90;;;;;;5034695;28;20183;-71
2023/08/17 03:58:15;;;;;;;9.83;8.67;;;19.00;99.90;;;;;;5034708;28;20258;-71
2023/08/17 04:00:40;;;;;;;9.93;8.97;;;18.90;99.90;;;;;;5034399;28;20226;-71
2023/08/17 04:03:06;;;;;;;10.43;8.10;;;18.80;99.90;;;;;;5033880;28;20203;-71
2023/08/17 04:05:32;;;;;;;10.60;8.97;;;18.80;99.90;;;;;;5032982;28;20249;-71
2023/08/17 04:08:02;;;;;;;15.73;8.73;;;18.70;99.90;;;;;;5034295;28;20878;-71
2023/08/17 04:10:28;;;;;;;9.50;8.70;;;18.70;99.90;;;;;;5034229;28;20195;-72
2023/08/17 04:12:53;;;;;;;9.80;8.60;;;18.70;99.90;;;;;;5034317;28;20266;-71
2023/08/17 04:15:19;;;;;;;9.93;8.90;;;18.70;99.90;;;;;;5033956;28;20249;-71
2023/08/17 04:17:45;;;;;;;9.93;8.77;;;18.60;99.90;;;;;;5034237;28;20172;-71
2023/08/17 04:20:11;;;;;;;15.10;9.77;;;18.50;99.90;;;;;;5034349;28;20176;-71
2023/08/17 04:22:36;;;;;;;10.07;9.07;;;18.50;99.90;;;;;;5033644;28;20261;-72
2023/08/17 04:25:02;;;;;;;16.20;9.57;;;18.50;99.90;;;;;;5033634;28;20254;-72
2023/08/17 04:27:28;;;;;;;11.93;9.93;;;18.50;99.90;;;;;;5033752;28;20628;-72
2023/08/17 04:29:53;;;;;;;10.47;9.27;;;18.50;99.90;;;;;;5033911;28;20179;-72
2023/08/17 04:32:19;;;;;;;10.90;9.77;;;18.50;99.90;;;;;;5033351;28;20179;-72
2023/08/17 04:34:46;;;;;;;10.13;9.03;;;18.50;99.90;;;;;;5034025;28;20536;-72
2023/08/17 04:37:11;;;;;;;15.67;10.00;;;18.50;99.90;;;;;;5033815;28;20709;-72
2023/08/17 04:39:37;;;;;;;10.00;9.00;;;18.60;99.90;;;;;;5033459;28;20203;-72
2023/08/17 04:42:04;;;;;;;10.53;8.83;;;18.70;99.90;;;;;;5033479;28;20271;-72
2023/08/17 04:44:30;;;;;;;11.93;9.40;;;18.70;99.90;;;;;;5033961;28;20243;-71
2023/08/17 04:46:55;;;;;;;12.10;10.00;;;18.60;99.90;;;;;;5033934;28;20683;-72
2023/08/17 04:49:21;;;;;;;14.17;9.93;;;18.60;99.90;;;;;;5033274;28;20171;-71
2023/08/17 04:51:46;;;;;;;10.97;9.50;;;18.60;99.90;;;;;;5033452;28;20575;-72
2023/08/17 04:54:12;;;;;;;12.13;10.10;;;18.60;99.90;;;;;;5033505;28;20201;-71
2023/08/17 04:56:38;;;;;;;10.63;9.53;;;18.60;99.90;;;;;;5030931;28;20543;-71
2023/08/17 04:59:03;;;;;;;14.87;10.23;;;18.70;99.90;;;;;;5022801;28;20237;-71
2023/08/17 05:01:29;;;;;;;11.37;10.20;;;18.70;99.90;;;;;;5033090;28;20698;-71
2023/08/17 05:03:54;;;;;;;12.13;10.30;;;18.60;99.90;;;;;;5031914;28;20208;-72
2023/08/17 05:06:20;;;;;;;15.67;10.60;;;18.60;99.90;;;;;;5033347;28;20194;-71
2023/08/17 05:08:45;;;;;;;12.87;10.70;;;18.60;99.90;;;;;;5033292;28;20259;-71
2023/08/17 05:11:12;;;;;;;14.10;10.27;;;18.60;99.90;;;;;;5033101;28;20657;-71
2023/08/17 05:13:37;;;;;;;20.43;10.77;;;18.60;99.90;;;;;;5032414;28;20229;-71
2023/08/17 05:16:03;;;;;;;12.20;10.03;;;18.70;99.90;;;;;;5033029;28;20213;-71
2023/08/17 05:18:29;;;;;;;13.90;10.70;;;18.70;99.90;;;;;;5032712;28;20684;-71
2023/08/17 05:20:54;;;;;;;12.00;10.73;;;18.70;99.90;;;;;;5032899;28;20183;-71
2023/08/17 05:23:20;;;;;;;13.90;10.77;;;18.70;99.90;;;;;;5030849;28;20548;-71
2023/08/17 05:25:47;;;;;;;13.47;10.63;;;18.70;99.90;;;;;;5032409;28;20218;-72
2023/08/17 05:28:13;;;;;;;13.23;10.70;;;18.80;99.90;;;;;;5032571;28;20184;-72
2023/08/17 05:30:39;;;;;;;11.77;9.83;;;18.80;99.90;;;;;;5032484;28;20707;-72
2023/08/17 05:33:04;;;;;;;11.27;9.90;;;18.90;99.90;;;;;;5032303;28;20207;-72
2023/08/17 05:35:30;;;;;;;12.20;10.20;;;18.90;99.90;;;;;;5032264;28;20179;-72
2023/08/17 05:37:55;;;;;;;14.03;10.37;;;18.90;99.90;;;;;;5032609;28;20194;-72
2023/08/17 05:40:21;;;;;;;12.77;10.00;;;19.00;99.90;;;;;;5032056;28;20377;-72
2023/08/17 05:42:46;;;;;;;12.53;9.90;;;19.10;99.90;;;;;;5032040;28;20266;-72
2023/08/17 05:45:12;;;;;;;11.93;9.07;;;19.20;99.90;;;;;;5030860;28;20579;-72
2023/08/17 05:47:38;;;;;;;11.00;9.33;;;19.10;99.90;;;;;;5030985;28;20176;-72
2023/08/17 05:50:04;;;;;;;12.23;9.63;;;19.10;99.90;;;;;;5032015;28;20250;-71
2023/08/17 05:52:29;;;;;;;10.13;9.23;;;19.10;99.90;;;;;;5031994;28;20180;-72
2023/08/17 05:54:55;;;;;;;10.73;9.63;;;19.10;99.90;;;;;;5032192;28;20195;-72
2023/08/17 05:57:20;;;;;;;9.97;8.57;;;19.10;99.90;;;;;;5031926;28;20217;-72
2023/08/17 05:59:46;;;;;;;10.90;8.53;;;19.10;99.90;;;;;;5031968;28;20183;-72
2023/08/17 06:02:12;;;;;;;9.70;8.30;;;19.20;99.90;;;;;;5030486;28;20221;-71
2023/08/17 06:04:37;;;;;;;9.77;7.73;;;19.30;99.90;;;;;;5031859;28;20744;-71
2023/08/17 06:07:03;;;;;;;8.93;8.03;;;19.40;99.90;;;;;;5032012;28;20469;-71
2023/08/17 06:09:29;;;;;;;9.60;8.37;;;19.50;99.90;;;;;;5029649;28;20188;-71
2023/08/17 06:11:54;;;;;;;11.30;8.47;;;19.60;99.90;;;;;;5031378;28;20263;-71
2023/08/17 06:14:20;;;;;;;8.60;7.80;;;19.60;99.90;;;;;;5030459;28;20210;-71
2023/08/17 06:16:46;;;;;;;10.17;9.03;;;19.60;99.90;;;;;;5031651;28;20206;-71
2023/08/17 06:19:11;;;;;;;11.77;8.17;;;19.60;99.90;;;;;;5031790;28;20210;-71
2023/08/17 06:21:37;;;;;;;8.87;7.97;;;19.70;99.90;;;;;;5031330;28;20254;-71
2023/08/17 06:24:03;;;;;;;9.27;8.27;;;19.80;99.90;;;;;;5031199;28;20206;-71
2023/08/17 06:26:29;;;;;;;9.13;8.23;;;19.90;99.90;;;;;;5031539;28;20270;-71
2023/08/17 06:28:55;;;;;;;8.23;7.40;;;20.00;99.90;;;;;;5031815;28;20281;-71
2023/08/17 06:31:20;;;;;;;8.40;7.43;;;20.20;99.90;;;;;;5031365;28;20176;-71
2023/08/17 06:33:46;;;;;;;8.47;6.50;;;20.20;99.90;;;;;;5031046;28;20352;-71
2023/08/17 06:36:16;;;;;;;8.77;7.40;;;20.30;99.90;;;;;;5031625;28;20207;-71
2023/08/17 06:38:42;;;;;;;7.77;6.97;;;20.40;99.90;;;;;;5031728;28;20175;-71
2023/08/17 06:41:08;;;;;;;8.90;7.93;;;20.60;99.90;;;;;;5030902;28;20176;-71
2023/08/17 06:43:33;;;;;;;9.07;7.82;;;20.70;99.90;;;;;;5030371;28;20207;-71
2023/08/17 06:46:00;;;;;;;9.43;6.93;;;20.60;99.90;;;;;;5031491;28;20555;-71
2023/08/17 06:48:26;;;;;;;7.93;7.13;;;20.60;99.90;;;;;;5031164;28;20175;-71
2023/08/17 06:50:51;;;;;;;8.87;8.00;;;20.80;99.90;;;;;;5030889;28;20236;-70
2023/08/17 06:53:17;;;;;;;8.25;7.40;;;20.80;99.90;;;;;;5030076;28;20282;-70
2023/08/17 06:55:43;;;;;;;8.33;7.50;;;20.90;99.90;;;;;;5030570;28;20191;-70
2023/08/17 06:58:08;;;;;;;8.73;7.38;;;21.00;99.90;;;;;;5031434;28;20201;-70
2023/08/17 07:00:35;;;;;;;7.35;6.53;;;21.10;99.90;;;;;;5030963;28;20171;-70
2023/08/17 07:03:01;;;;;;;9.23;8.38;;;21.10;99.90;;;;;;5030806;28;20198;-70
2023/08/17 07:05:26;;;;;;;7.93;7.20;;;21.20;99.90;;;;;;5031087;28;20262;-70
2023/08/17 07:07:55;;;;;;;8.75;6.80;;;21.10;99.90;;;;;;5030931;28;20175;-71
2023/08/17 07:10:21;;;;;;;11.87;7.60;;;21.10;99.90;;;;;;5030227;28;20182;-71
2023/08/17 07:12:46;;;;;;;12.13;6.90;;;21.10;99.90;;;;;;5030751;28;20176;-71
2023/08/17 07:15:12;;;;;;;9.40;7.18;;;21.20;99.90;;;;;;5031057;28;20219;-71
2023/08/17 07:17:38;;;;;;;7.70;7.00;;;21.20;99.90;;;;;;5030885;28;20542;-71
2023/08/17 07:20:05;;;;;;;8.83;7.97;;;21.10;99.90;;;;;;5031023;28;20222;-71
2023/08/17 07:22:31;;;;;;;8.63;7.72;;;21.10;99.90;;;;;;5034087;28;20199;-71
2023/08/17 07:24:57;;;;;;;12.40;8.35;;;21.20;99.90;;;;;;5035079;28;20239;-71
2023/08/17 07:27:22;;;;;;;10.38;7.90;;;21.30;99.90;;;;;;5033834;28;20172;-71
2023/08/17 07:29:48;;;;;;;9.23;7.63;;;21.20;99.90;;;;;;5034750;28;20183;-71
2023/08/17 07:32:14;;;;;;;9.75;8.25;;;21.20;99.90;;;;;;5034460;28;20179;-72
2023/08/17 07:34:39;;;;;;;11.65;8.00;;;21.30;99.90;;;;;;5034787;28;20301;-71
2023/08/17 07:37:06;;;;;;;9.20;7.47;;;21.40;99.90;;;;;;5034935;28;20225;-71
2023/08/17 07:39:32;;;;;;;11.77;9.13;;;21.30;99.90;;;;;;5034436;28;20571;-72
2023/08/17 07:41:57;;;;;;;9.07;7.85;;;21.40;99.90;;;;;;5034503;28;20183;-72
2023/08/17 07:44:23;;;;;;;8.98;7.22;;;21.50;99.90;;;;;;5034211;28;20215;-72
2023/08/17 07:46:48;;;;;;;9.45;8.02;;;21.50;99.90;;;;;;5034680;28;20207;-71
2023/08/17 07:49:14;;;;;;;10.00;7.53;;;21.60;99.90;;;;;;5034397;28;20176;-71
2023/08/17 07:51:40;;;;;;;8.95;8.10;;;21.60;99.90;;;;;;5034103;28;20574;-71
2023/08/17 07:54:05;;;;;;;10.70;8.30;;;21.60;99.90;;;;;;5034039;28;20659;-71
2023/08/17 07:56:31;;;;;;;14.60;8.52;;;21.80;99.90;;;;;;5033684;28;20183;-71
2023/08/17 07:58:57;;;;;;;10.43;8.65;;;21.90;99.90;;;;;;5034218;28;20179;-71
2023/08/17 08:01:23;;;;;;;10.20;8.00;;;21.90;99.90;;;;;;5033668;28;20552;-72
2023/08/17 08:03:48;;;;;;;9.15;8.30;;;21.90;99.90;;;;;;5033866;28;20223;-72
2023/08/17 08:06:14;;;;;;;13.65;9.60;;;22.00;99.90;;;;;;5034250;28;20645;-71
2023/08/17 08:08:40;;;;;;;10.43;8.35;;;22.00;99.90;;;;;;5034007;28;20246;-72
2023/08/17 08:11:06;;;;;;;13.18;8.38;;;22.10;99.90;;;;;;5032754;28;20176;-72
2023/08/17 08:13:32;;;;;;;9.10;7.82;;;21.90;99.90;;;;;;5033479;28;20662;-72
2023/08/17 08:15:58;;;;;;;10.40;8.55;;;21.80;99.90;;;;;;5033988;28;20258;-71
2023/08/17 08:18:24;;;;;;;10.82;8.88;;;21.70;99.90;;;;;;5033833;28;20191;-71
2023/08/17 08:20:50;;;;;;;9.55;8.25;;;21.70;99.90;;;;;;5034141;28;20628;-72
2023/08/17 08:23:16;;;;;;;9.95;7.57;;;21.70;99.90;;;;;;5033425;28;20278;-72
2023/08/17 08:25:42;;;;;;;11.45;9.85;;;21.80;99.90;;;;;;5033427;28;20175;-72
2023/08/17 08:28:08;;;;;;;11.70;9.07;;;21.80;99.90;;;;;;5033829;28;20187;-72
2023/08/17 08:30:34;;;;;;;14.27;9.00;;;21.90;99.90;;;;;;5033514;28;20160;-72
2023/08/17 08:32:59;;;;;;;14.60;10.60;;;22.00;99.90;;;;;;5031952;28;20282;-72
2023/08/17 08:35:25;;;;;;;14.35;9.05;;;22.10;99.90;;;;;;5033438;28;20174;-72
2023/08/17 08:37:51;;;;;;;15.27;11.30;;;22.40;99.90;;;;;;5033539;28;20170;-72
2023/08/17 08:40:17;;;;;;;12.55;9.80;;;22.70;99.90;;;;;;5033445;28;20222;-72
2023/08/17 08:42:44;;;;;;;10.70;9.60;;;22.90;99.90;;;;;;5033091;28;20254;-71
2023/08/17 08:45:10;;;;;;;16.27;11.88;;;23.00;99.90;;;;;;5033587;28;20245;-71
2023/08/17 08:47:41;;;;;;;11.80;9.55;;;22.80;99.90;;;;;;5033167;28;20171;-71
2023/08/17 08:50:11;;;;;;;14.32;9.68;;;22.80;99.90;;;;;;5031951;28;20194;-71
2023/08/17 08:52:42;;;;;;;13.43;10.13;;;22.80;99.90;;;;;;5032834;28;20668;-71
2023/08/17 08:55:13;;;;;;;13.73;9.80;;;22.80;99.90;;;;;;5032221;28;20454;-71
2023/08/17 08:57:40;;;;;;;11.55;9.85;;;22.80;99.90;;;;;;5033007;28;20600;-71
2023/08/17 09:00:07;;;;;;;13.30;9.95;;;22.80;99.90;;;;;;5033221;28;20203;-72
2023/08/17 09:02:34;;;;;;;12.50;9.93;;;22.90;99.90;;;;;;5033077;28;20172;-71
2023/08/17 09:05:01;;;;;;;13.40;10.07;;;22.90;99.90;;;;;;5031829;28;20211;-71
2023/08/17 09:07:29;;;;;;;12.45;9.57;;;22.90;99.90;;;;;;5032700;28;20170;-71
2023/08/17 09:09:55;;;;;;;14.02;10.38;;;22.90;99.90;;;;;;5033091;28;20176;-71
2023/08/17 09:12:22;;;;;;;9.95;8.95;;;22.70;99.90;;;;;;5032508;28;20278;-71
2023/08/17 09:14:50;;;;;;;12.05;10.60;;;22.70;99.90;;;;;;5031749;28;20203;-71
2023/08/17 09:17:26;;;;;;;13.13;10.70;;;22.80;99.90;;;;;;5031768;28;20176;-72
2023/08/17 09:19:53;;;;;;;11.60;10.43;;;22.80;99.90;;;;;;5033099;28;20271;-72
2023/08/17 09:22:45;;;;;;;16.33;10.68;;;22.90;99.90;;;;;;5031212;28;20175;-72
2023/08/17 09:25:21;;;;;;;11.57;9.55;;;22.90;99.90;;;;;;5032040;28;20250;-72
2023/08/17 09:27:47;;;;;;;12.65;10.98;;;23.20;99.90;;;;;;5032910;28;20183;-72
2023/08/17 09:30:13;;;;;;;11.80;10.15;;;23.20;99.90;;;;;;5032095;28;20695;-71
2023/08/17 09:32:38;;;;;;;15.68;11.25;;;23.10;99.90;;;;;;5032248;28;20263;-72
2023/08/17 09:35:05;;;;;;;13.95;12.38;;;23.10;99.90;;;;;;5032516;28;20199;-72
2023/08/17 09:37:32;;;;;;;14.35;11.57;;;23.10;99.90;;;;;;5032362;28;20183;-71
2023/08/17 09:39:58;;;;;;;13.52;11.68;;;23.10;99.90;;;;;;5032461;28;20203;-72
2023/08/17 09:42:25;;;;;;;11.68;10.40;;;23.00;99.90;;;;;;5031816;28;20206;-72
2023/08/17 09:44:51;;;;;;;10.55;9.50;;;22.90;99.90;;;;;;5025493;28;20207;-72
2023/08/17 09:47:17;;;;;;;13.02;11.50;;;22.90;99.90;;;;;;5032426;28;20176;-72
2023/08/17 09:49:54;;;;;;;14.07;10.40;;;23.20;99.90;;;;;;5032352;28;20713;-72
2023/08/17 09:52:21;;;;;;;14.60;10.45;;;23.40;99.90;;;;;;5031793;28;20263;-72
2023/08/17 09:54:47;;;;;;;12.73;11.48;;;23.50;99.90;;;;;;5032239;28;20192;-72
2023/08/17 09:57:13;;;;;;;13.60;10.65;;;23.50;99.90;;;;;;5032316;28;20253;-72
2023/08/17 09:59:39;;;;;;;11.32;9.63;;;23.60;99.90;;;;;;5032247;28;20216;-72
2023/08/17 10:02:17;;;;;;;13.93;11.07;;;23.80;99.90;;;;;;5031962;28;20179;-72
2023/08/17 10:04:47;;;;;;;11.98;10.70;;;23.80;99.90;;;;;;5030909;28;20615;-71
2023/08/17 10:07:14;;;;;;;10.15;8.85;;;23.90;99.90;;;;;;5032158;28;20167;-71
2023/08/17 10:09:44;;;;;;;12.88;10.63;;;23.80;99.90;;;;;;5031786;28;20642;-71
2023/08/17 10:12:15;;;;;;;12.38;9.85;;;24.10;99.90;;;;;;5031313;28;20171;-71
2023/08/17 10:14:49;;;;;;;15.88;11.35;;;24.30;99.90;;;;;;5031923;28;20558;-71
2023/08/17 10:17:22;;;;;;;13.55;11.27;;;24.30;99.90;;;;;;5031878;28;20676;-71
2023/08/17 10:19:53;;;;;;;11.13;10.00;;;24.30;99.90;;;;;;5031636;28;20233;-72
2023/08/17 10:22:29;;;;;;;13.05;11.27;;;24.40;99.90;;;;;;5031447;28;20179;-71
2023/08/17 10:24:58;;;;;;;14.05;11.15;;;24.50;99.90;;;;;;5031775;28;20256;-71
2023/08/17 10:27:25;;;;;;;14.00;11.63;;;24.50;99.90;;;;;;5030152;28;20168;-72
2023/08/17 10:29:52;;;;;;;12.32;10.18;;;24.60;99.90;;;;;;5030551;28;20172;-72
2023/08/17 10:32:17;;;;;;;14.93;11.73;;;24.70;99.90;;;;;;5030009;28;20221;-72
2023/08/17 10:34:44;;;;;;;17.80;12.40;;;24.60;99.90;;;;;;5031811;28;20681;-72
2023/08/17 10:37:11;;;;;;;13.23;11.20;;;24.30;99.90;;;;;;5031225;28;20237;-72
2023/08/17 10:39:46;;;;;;;13.73;10.52;;;24.30;99.90;;;;;;5031333;28;20641;-72
2023/08/17 10:42:13;;;;;;;12.10;9.60;;;24.10;99.90;;;;;;5031232;28;20221;-72
2023/08/17 10:44:45;;;;;;;12.40;9.73;;;24.00;99.90;;;;;;5031911;28;20211;-72
2023/08/17 10:47:21;;;;;;;11.90;10.00;;;24.30;99.90;;;;;;5031446;28;20166;-72
2023/08/17 10:49:52;;;;;;;13.00;9.32;;;24.30;99.90;;;;;;5031491;28;20182;-71
2023/08/17 10:52:32;;;;;;;13.23;9.77;;;24.30;99.90;;;;;;5030828;28;20175;-72
2023/08/17 10:55:05;;;;;;;14.43;10.77;;;24.10;99.90;;;;;;5030934;28;20191;-72
2023/08/17 10:57:43;;;;;;;12.88;10.00;;;23.90;99.90;;;;;;5030898;28;20182;-72
2023/08/17 11:00:31;;;;;;;19.30;9.20;;;23.70;99.90;;;;;;5031448;28;20181;-72
2023/08/17 11:02:59;;;;;;;13.82;9.70;;;23.70;99.90;;;;;;5031259;28;20258;-72
2023/08/17 11:05:42;;;;;;;14.00;9.52;;;23.80;99.90;;;;;;5030842;28;20176;-72
2023/08/17 11:08:11;;;;;;;10.82;8.43;;;23.80;99.90;;;;;;5031330;28;20178;-72
2023/08/17 11:10:38;;;;;;;12.50;9.30;;;23.70;99.90;;;;;;5031160;28;20167;-71
2023/08/17 11:13:04;;;;;;;13.85;9.60;;;23.80;99.90;;;;;;5030799;28;20188;-71
2023/08/17 11:15:38;;;;;;;12.88;8.75;;;23.60;99.90;;;;;;5030302;28;20259;-72
2023/08/17 11:18:06;;;;;;;11.57;9.38;;;23.60;99.90;;;;;;5031245;28;20340;-72
2023/08/17 11:20:32;;;;;;;12.05;10.00;;;23.70;99.90;;;;;;5030983;28;20175;-72
2023/08/17 11:22:59;;;;;;;14.88;9.07;;;23.80;99.90;;;;;;5030788;28;20221;-72
2023/08/17 11:25:27;;;;;;;13.90;9.85;;;24.10;99.90;;;;;;5031085;28;20175;-72
2023/08/17 11:27:53;;;;;;;12.82;10.10;;;24.50;99.90;;;;;;5029614;28;20619;-72
2023/08/17 11:30:20;;;;;;;11.75;8.73;;;24.60;99.90;;;;;;5031020;28;20179;-72
2023/08/17 11:32:46;;;;;;;12.85;9.63;;;24.80;99.90;;;;;;5030647;28;20539;-72
2023/08/17 11:35:11;;;;;;;10.70;8.65;;;24.90;99.90;;;;;;5031030;28;20182;-72
2023/08/17 11:37:37;;;;;;;11.93;9.18;;;25.10;99.90;;;;;;5030727;28;20183;-72
2023/08/17 11:40:04;;;;;;;10.77;9.00;;;25.30;99.90;;;;;;5030944;28;20543;-72
2023/08/17 11:42:30;;;;;;;13.05;9.70;;;25.70;99.90;;;;;;5030254;28;20825;-72
2023/08/17 11:44:56;;;;;;;13.77;9.57;;;26.00;99.90;;;;;;5030441;28;20310;-72
2023/08/17 11:47:21;;;;;;;12.63;7.63;;;25.70;99.90;;;;;;5030757;28;20178;-72
2023/08/17 11:49:50;;;;;;;18.25;9.63;;;25.60;99.90;;;;;;5030821;28;20641;-72
2023/08/17 11:52:16;;;;;;;12.35;8.82;;;25.80;99.90;;;;;;5030475;28;20176;-72
2023/08/17 11:54:41;;;;;;;9.80;8.80;;;26.10;99.90;;;;;;5027785;28;20301;-72
2023/08/17 11:57:07;;;;;;;10.05;8.88;;;26.20;99.90;;;;;;5030655;28;20175;-71
2023/08/17 11:59:33;;;;;;;12.90;10.05;;;26.10;99.90;;;;;;5030527;28;20174;-72
2023/08/17 12:02:00;;;;;;;11.75;9.55;;;25.80;99.90;;;;;;5030352;28;20175;-71
2023/08/17 12:04:26;;;;;;;10.02;9.05;;;25.50;99.90;;;;;;5030004;28;20688;-71
2023/08/17 12:06:52;;;;;;;11.57;9.15;;;25.30;99.90;;;;;;5030609;28;20202;-71
2023/08/17 12:09:18;;;;;;;12.98;9.23;;;25.10;99.90;;;;;;5033497;28;20263;-71
2023/08/17 12:11:46;;;;;;;13.40;9.23;;;25.10;99.90;;;;;;5033390;28;20167;-72
2023/08/17 12:14:12;;;;;;;14.07;8.45;;;25.10;99.90;;;;;;5014151;28;20279;-71
2023/08/17 12:16:51;;;;;;;11.55;9.32;;;24.90;99.90;;;;;;5014165;28;20207;-71
2023/08/17 12:19:18;;;;;;;13.60;10.02;;;24.70;99.90;;;;;;5012912;28;20184;-71
2023/08/17 12:21:45;;;;;;;10.95;9.13;;;24.40;99.90;;;;;;5013742;28;20195;-71
2023/08/17 12:24:14;;;;;;;10.70;9.43;;;24.30;99.90;;;;;;5014378;28;20203;-71
2023/08/17 12:26:49;;;;;;;12.32;9.73;;;24.10;99.90;;;;;;5013043;28;20735;-71
2023/08/17 12:29:14;;;;;;;15.27;10.85;;;23.90;99.90;;;;;;5013911;28;20242;-71
2023/08/17 12:31:40;;;;;;;14.43;10.85;;;23.70;99.90;;;;;;5013520;28;20196;-71
2023/08/17 12:34:06;;;;;;;12.77;10.77;;;23.70;99.90;;;;;;5013735;28;20265;-71